Дата Пункты Температура Давл., мм. Влажн., % Ветер Погодные явления
Воздуха Воды Направл. Скорость
16.06.16 06:00 Одесса 27.0 21.0 756 54 З 2 18 часов
16.06.16 03:00 Одесса 25.0 21.0 755 65 Пд 4 15 часов
16.06.16 12:00 Одесса 26.0 21.0 754 66 Пн 1 12 часов
16.06.16 09:00 Одесса 22.0 21.0 753 85 С 1 09 часов
16.06.16 06:00 Одесса 19.0 21.0 752 99 З 1 06 часов
16.06.16 03:00 Одесса 17.0 21.0 751 99 Пд-З 2 03 часа
15.06.16 09:00 Одесса 20.0 21.0 749 95 Пд-З 1 21 час
15.06.16 06:00 Одесса 21.0 20.0 748 94 Пд 3 18 часов
15.06.16 03:00 Одесса 22.0 20.0 748 87 Пд 6 15 часов
15.06.16 12:00 Одесса 22.0 20.0 747 91 Пд 3 12 часов
15.06.16 09:00 Одесса 20.0 20.0 747 95 Пд-З 1 09 часов
15.06.16 06:00 Одесса 18.0 20.0 746 96 Пд 1 06 часов
15.06.16 03:00 Одесса 18.0 20.0 746 96 Пд-С 2 03 часа
14.06.16 09:00 Одесса 19.0 20.0 747 96 Пд-С 2 21 час
14.06.16 06:00 Одесса 20.0 20.0 747 94 Пд 3 18 часов
14.06.16 03:00 Одесса 21.0 20.0 747 94 Пд 3 15 часов
14.06.16 12:00 Одесса 21.0 20.0 748 94 Пд-С 3 12 часов
14.06.16 09:00 Одесса 20.0 20.0 748 95 С 2 09 часов
14.06.16 06:00 Одесса 19.0 19.0 749 97 С 1 06 часов
14.06.16 03:00 Одесса 18.0 19.0 749 99 Пд-С 2 03 часа
Количество строк
351 352 353 354 355 356 357 358 359 360
Page 355 of 530